Dernières infos :  

21/09/2017  Mise à jour des tableaux d'analyses décadaires : rubrique climatologie
02/08/2017 Mise en ligne de la synthèse climatologique d'Août 2017 : 
CLIQUEZ ICI
01/09/2017  Mise à jour des tableaux d'analyses décadaires, mensuelles et annuelles : rubrique climatologie   

Si l'entête du tableau ne s'affiche pas correctement, => actualisez la page (F5 avec Internet Explorer, Chrome...).
Utilisez l'ascenseur sur la droite des lignes du tableau pour faire défiler verticalement les jours du mois.

TABLEAU DES DONNEES COMPLETES NOAA DE JANVIER 2015

DATE TEMPERATURE
sous abri
TEMPARATURE 
au sol
VENT  et  Indice de Refroidissement Eolien  PRECIPITATIONS (en mm/m2)
et Intensité
PRESSION ATMOSPHERIQUE (en hPa) HUMIDITE de l'AIR RADIATIONS SOLAIRES (en W/m2)
Mini Moy. Maxi Mini Moy. Maxi Moyen Rafale I.R.E.
Minii
Précip. jour Cumul mois Intensité Maxi Mini Moy. Maxi Mini Moy. Maxi Pic maxi du jour Total jour
01/01/2015 -3.1° -0.6° 2.6° -5° -1.3° 3.3° 0.5km/h dir N 11.3km/h dir NNO -3° 0.2 0.2 1034.5 1037.1 1038.5 81% 90.4% 94% 211 10 892
02/01/2015 -5.2° 0.1° 4.5° -6.7° -0.4° 7.8° 0.2km/h dir NO 9.7km/h dir S -6.8° 1 1.2 0.8mm/h 1036.8 1037.9 1038.8 83% 92.5% 96% 434 10 442
03/01/2015 3.1° 9.5° 2.8° 5.6° 8.9° 1.1km/h dir S 14.5km/h dir SSO 3.1° 5.6 6.8 7.6mm/h 1027.8 1032.2 1038 95% 96% 97% 114 3 821
04/01/2015 0.4° 6.9° 9.5° -1.7° 6.4° 9.4° 4.3km/h dir N 25.7km/h dir N 0.6° 4.4 11.2 5.2mm/h 1028.9 1032.5 1036 88% 93.8% 97% 381 9 053
05/01/2015 -0.6° 0.3° -2.8° -0.1° 2.2° 0.3km/h dir NO 8km/h dir NO -1.7° 0.2 11.4 1028.9 1033 1035.7 91% 95.3% 97% 88 5 296
06/01/2015 -2.6° -1° 0.4° -2.8° -1.1° 0.6° 0km/h dir SE 6.4km/h dir SE -2.6° 0 11.4 1026 1027.5 1030.7 96% 96.3% 97% 162 8 299
07/01/2015 0.4° 4.1° 8.7° 0.6° 4.1° 12.8° 0.2km/h dir SO 11.3km/h dir S 0.4° 0 11.4 1030.3 1031.5 1033 85% 94.6% 97% 455 13 251
08/01/2015 3.1° 6.4° 9.9° 1.7° 6.1° 13.9° 1.9km/h dir SSE 22.5km/h dir S 3.1° 0.6 12 1032.5 1034.2 1038.3 78% 88.7% 96% 376 13 802
09/01/2015 3.1° 7.2° 10.9° -0.6° 10° 3.1km/h dir SSE 29km/h dir S 3.1° 0.2 12.2 1034.5 1036.6 1038.8 85% 91% 96% 120 5 858
10/01/2015 9.6° 12.3° 18.3° 6.1° 11.6° 20° 2.3km/h dir S 27.4km/h dir S 9.5° 0 12.2 1024 1028.5 1034.5 67% 84% 93% 390 16 152
11/01/2015 1.2° 11.9° -2.2° 12.8° 3.4km/h dir NO 41.8km/h dir N 1.3° 6.4 18.6 18.8mm/h 1020.3 1028.6 1035 66% 83.3% 94% 519 14 715
12/01/2015 -1.8° 10.4° -4.4° 0.7° 12.8° 1km/h dir SSE 12.9km/h dir S -2.4° 0.2 18.8 1025 1030.2 1034.3 56% 85.9% 96% 411 22 233
13/01/2015 -1.8° 8.8° 14.4° -4.4° 7.7° 16.1° 12.9km/h dir S 59.5km/h dir SSO -3.1° 0 18.8 1017.1 1020.1 1025 45% 70% 91% 373 19 243
14/01/2015 5.8° 9.3° 12.3° 3.3° 8.2° 16.7° 5.1km/h dir S 46.7km/h dir SSO 5.2° 4.6 23.4 30.2mm/h 1017.9 1019.9 1021.5 61% 78.7% 93% 571 12 343
15/01/2015 5.7° 10.1° 13.1° 2.2° 9.1° 12.2° 12.6km/h dir S 51.5km/h dir S 5.2° 0 23.4 1007.9 1011.9 1019 63% 72% 84% 88 5 647
16/01/2015 3.7° 8.4° 11.8° 2.8° 7.4° 11.1° 3.2km/h dir SSO 56.3km/h dir SSO 3.7° 46.6 70 15.2mm/h 1003.9 1007 1011.8 70% 86.4% 95% 26 1 069
17/01/2015 -0.7° 3.8° 7.1° -3.3° 7.8° 0.6km/h dir NO 16.1km/h dir S -0.7° 6.6 76.6 2mm/h 1011.6 1017 1020.5 72% 90.3% 96% 406 12 746
18/01/2015 -3.5° 0.6° -6.1° -0.1° 12.2° 0.6km/h dir S 19.3km/h dir S -3.5° 0.2 76.8 1011.6 1015.5 1020.4 57% 87.6% 96% 533 23 832
19/01/2015 0.6° 3.2° 5.1° 2.7° 5.6° 1.1km/h dir SSE 19.3km/h dir SSE 0.6° 7 83.8 2mm/h 1010.2 1011 1012 90% 93.4% 95% 172 6 798
20/01/2015 1.7° 2.6° 4.2° 1.1° 2.4° 1.1km/h dir N 19.3km/h dir NNO -0.4° 2.4 86.2 0.8mm/h 1009.9 1010.5 1011.2 90% 94% 96% 160 7 002
21/01/2015 2.2° 3.2° 0.6° 1.9° 3.3° 0.2km/h dir NNO 9.7km/h dir NNO 0.5° 2.4 88.6 2mm/h 1005.1 1007.4 1010.7 93% 95% 96% 134 6 109
22/01/2015 2.1° 2.8° 3.7° 1.7° 2.5° 3.9° 2.1km/h dir N 20.9km/h dir N -0.3° 0.2 88.8 1007 1012.3 1017.7 90% 93.7% 97% 114 4 365
23/01/2015 1.2° 2.1° 2.9° 0.6° 1.6° 2.2° 9.2km/h dir N 25.7km/h dir NNE -2.5° 0 88.8 1017.7 1021.1 1024.6 86% 89.7% 93% 95 3 071
24/01/2015 0.4° 1.2° 2.6° 0.8° 2.8° 5.3km/h dir NNO 25.7km/h dir N -3° 0.4 89.2 1022.1 1024.6 1027.1 83% 90.1% 95% 174 6 673
25/01/2015 0.7° 1.8° 4.1° -0.6° 1.5° 6.7° 11.9km/h dir N 35.4km/h dir N -3.7° 2.8 92 1.2mm/h 1027.2 1029.3 1030.7 82% 89.4% 95% 519 18 354
26/01/2015 0.1° 1.3° 3.4° -2.2° 0.8° 3.9° 1.3km/h dir NNO 12.9km/h dir NO -1.4° 10.4 102.4 3.6mm/h 1025.1 1027.8 1030 91% 94.4% 96% 137 7 066
27/01/2015 0.8° 3.3° 5.9° -2.2° 2.8° 8.3° 4.2km/h dir N 27.4km/h dir NNE 5 107.4 3.6mm/h 1023.9 1025.3 1026.3 79% 91.4% 96% 392 15 057
28/01/2015 -0.3° 2.9° 5.8° -2.2° 2.4° 6.1° 3.7km/h dir S 35.4km/h dir S -0.3° 0.6 108 1009 1019.6 1025.9 73% 88% 96% 283 9 527
29/01/2015 4.2° 5.3° 6.3° 3.3° 4.8° 5.6° 7.9km/h dir S 38.6km/h dir SSE 12.4 120.4 2.6mm/h 981.7 997.6 1009 83% 92.6% 95% 97 5 683
30/01/2015 1.6° 3.4° 6.8° 11.1° 4.2km/h dir S 37km/h dir OSO -1° 3.4 123.8 8.2mm/h 982.4 985.6 988.8 67% 85.2% 94% 636 13 266
31/01/2015 0.6° 4.7° -1.1° 1.4° 5.6° 1km/h dir S 16.1km/h dir NNO 0.7° 2 125.8 41.4mm/h 984.8 987.6 991.5 89% 93.6% 96% 258 8 460

RETOUR ACCUEIL


Date de création : 01/02/2015 : 16:16
Dernière modification : 01/06/2015 : 19:52
Catégorie : ARCHIVES 2002 à 2016 - ANNEES 2010 à 2019 - ANNEE 2015 - JANVIER 2015
Page lue 1832 fois


Réactions à cet article

Personne n'a encore laissé de commentaire.
Soyez donc le premier !